sensor_id;sensor_type;location;lat;lon;timestamp;pressure;altitude;pressure_sealevel;temperature;humidity
73624;BME280;61921;53.226;-1.296;2023-07-31T00:01:35;99222.40;;;16.97;100.00
73624;BME280;61921;53.226;-1.296;2023-07-31T00:04:00;99221.23;;;16.97;100.00
73624;BME280;61921;53.226;-1.296;2023-07-31T00:06:26;99210.07;;;17.04;100.00
73624;BME280;61921;53.226;-1.296;2023-07-31T00:08:51;99208.05;;;17.13;100.00
73624;BME280;61921;53.226;-1.296;2023-07-31T00:11:16;99205.94;;;17.04;100.00
73624;BME280;61921;53.226;-1.296;2023-07-31T00:13:41;99204.42;;;17.11;100.00
73624;BME280;61921;53.226;-1.296;2023-07-31T00:16:06;99201.01;;;17.13;100.00
73624;BME280;61921;53.226;-1.296;2023-07-31T00:18:31;99196.73;;;17.17;100.00
73624;BME280;61921;53.226;-1.296;2023-07-31T00:20:57;99184.29;;;17.21;100.00
73624;BME280;61921;53.226;-1.296;2023-07-31T00:23:22;99188.09;;;17.24;100.00
73624;BME280;61921;53.226;-1.296;2023-07-31T00:25:47;99187.37;;;17.25;100.00
73624;BME280;61921;53.226;-1.296;2023-07-31T00:28:12;99183.43;;;17.21;100.00
73624;BME280;61921;53.226;-1.296;2023-07-31T00:30:38;99173.75;;;17.28;100.00
73624;BME280;61921;53.226;-1.296;2023-07-31T00:33:03;99175.94;;;17.22;100.00
73624;BME280;61921;53.226;-1.296;2023-07-31T00:35:28;99172.07;;;17.14;100.00
73624;BME280;61921;53.226;-1.296;2023-07-31T00:37:53;99171.05;;;17.21;100.00
73624;BME280;61921;53.226;-1.296;2023-07-31T00:40:18;99169.86;;;17.21;100.00
73624;BME280;61921;53.226;-1.296;2023-07-31T00:42:43;99168.23;;;17.19;100.00
73624;BME280;61921;53.226;-1.296;2023-07-31T00:45:09;99160.55;;;17.18;100.00
73624;BME280;61921;53.226;-1.296;2023-07-31T00:47:34;99152.95;;;17.18;100.00
73624;BME280;61921;53.226;-1.296;2023-07-31T00:49:59;99147.98;;;17.17;100.00
73624;BME280;61921;53.226;-1.296;2023-07-31T00:52:24;99144.86;;;17.13;100.00
73624;BME280;61921;53.226;-1.296;2023-07-31T00:54:49;99140.31;;;17.17;100.00
73624;BME280;61921;53.226;-1.296;2023-07-31T00:57:15;99137.04;;;17.06;100.00
73624;BME280;61921;53.226;-1.296;2023-07-31T00:59:40;99141.94;;;17.08;100.00
73624;BME280;61921;53.226;-1.296;2023-07-31T01:02:05;99142.53;;;17.06;100.00
73624;BME280;61921;53.226;-1.296;2023-07-31T01:04:30;99141.25;;;17.11;100.00
73624;BME280;61921;53.226;-1.296;2023-07-31T01:06:59;99136.65;;;17.08;100.00
73624;BME280;61921;53.226;-1.296;2023-07-31T01:09:27;99140.59;;;17.16;100.00
73624;BME280;61921;53.226;-1.296;2023-07-31T01:11:50;99132.12;;;17.21;100.00
73624;BME280;61921;53.226;-1.296;2023-07-31T01:14:11;99131.01;;;17.22;100.00
73624;BME280;61921;53.226;-1.296;2023-07-31T01:16:36;99126.00;;;17.31;100.00
73624;BME280;61921;53.226;-1.296;2023-07-31T01:19:01;99122.17;;;17.29;100.00
73624;BME280;61921;53.226;-1.296;2023-07-31T01:21:41;99116.62;;;17.27;100.00
73624;BME280;61921;53.226;-1.296;2023-07-31T01:24:04;99112.63;;;17.35;100.00
73624;BME280;61921;53.226;-1.296;2023-07-31T01:26:19;99110.58;;;17.42;100.00
73624;BME280;61921;53.226;-1.296;2023-07-31T01:28:50;99111.51;;;17.49;100.00
73624;BME280;61921;53.226;-1.296;2023-07-31T01:31:08;99110.21;;;17.50;100.00
73624;BME280;61921;53.226;-1.296;2023-07-31T01:33:32;99109.63;;;17.47;100.00
73624;BME280;61921;53.226;-1.296;2023-07-31T01:35:58;99105.30;;;17.51;100.00
73624;BME280;61921;53.226;-1.296;2023-07-31T01:38:23;99106.19;;;17.60;100.00
73624;BME280;61921;53.226;-1.296;2023-07-31T01:40:51;99101.22;;;17.63;100.00
73624;BME280;61921;53.226;-1.296;2023-07-31T01:43:13;99097.68;;;17.63;100.00
73624;BME280;61921;53.226;-1.296;2023-07-31T01:45:38;99100.42;;;17.58;100.00
73624;BME280;61921;53.226;-1.296;2023-07-31T01:48:04;99100.97;;;17.52;100.00
73624;BME280;61921;53.226;-1.296;2023-07-31T01:50:29;99096.33;;;17.61;100.00
73624;BME280;61921;53.226;-1.296;2023-07-31T01:52:54;99098.72;;;17.66;100.00
73624;BME280;61921;53.226;-1.296;2023-07-31T01:55:19;99094.40;;;17.63;100.00
73624;BME280;61921;53.226;-1.296;2023-07-31T01:57:44;99091.65;;;17.67;100.00
73624;BME280;61921;53.226;-1.296;2023-07-31T02:00:10;99092.78;;;17.81;100.00
73624;BME280;61921;53.226;-1.296;2023-07-31T02:02:35;99091.28;;;17.76;100.00
73624;BME280;61921;53.226;-1.296;2023-07-31T02:05:00;99091.05;;;17.75;100.00
73624;BME280;61921;53.226;-1.296;2023-07-31T02:07:25;99096.55;;;17.84;100.00
73624;BME280;61921;53.226;-1.296;2023-07-31T02:09:50;99094.13;;;17.81;100.00
73624;BME280;61921;53.226;-1.296;2023-07-31T02:12:15;99092.33;;;17.88;100.00
73624;BME280;61921;53.226;-1.296;2023-07-31T02:14:41;99088.37;;;17.90;100.00
73624;BME280;61921;53.226;-1.296;2023-07-31T02:17:06;99088.84;;;18.04;100.00
73624;BME280;61921;53.226;-1.296;2023-07-31T02:19:31;99082.12;;;17.95;100.00
73624;BME280;61921;53.226;-1.296;2023-07-31T02:21:56;99078.55;;;17.88;100.00
73624;BME280;61921;53.226;-1.296;2023-07-31T02:24:21;99075.23;;;17.92;100.00
73624;BME280;61921;53.226;-1.296;2023-07-31T02:26:46;99075.48;;;17.93;100.00
73624;BME280;61921;53.226;-1.296;2023-07-31T02:29:11;99072.89;;;18.06;100.00
73624;BME280;61921;53.226;-1.296;2023-07-31T02:31:36;99072.21;;;17.93;100.00
73624;BME280;61921;53.226;-1.296;2023-07-31T02:34:01;99073.50;;;17.97;100.00
73624;BME280;61921;53.226;-1.296;2023-07-31T02:36:27;99072.92;;;18.00;100.00
73624;BME280;61921;53.226;-1.296;2023-07-31T02:38:52;99064.37;;;18.06;100.00
73624;BME280;61921;53.226;-1.296;2023-07-31T02:41:17;99066.11;;;18.09;100.00
73624;BME280;61921;53.226;-1.296;2023-07-31T02:43:42;99062.58;;;18.16;100.00
73624;BME280;61921;53.226;-1.296;2023-07-31T02:46:07;99064.30;;;18.18;100.00
73624;BME280;61921;53.226;-1.296;2023-07-31T02:48:32;99064.04;;;18.16;100.00
73624;BME280;61921;53.226;-1.296;2023-07-31T02:50:58;99064.51;;;18.11;100.00
73624;BME280;61921;53.226;-1.296;2023-07-31T02:53:23;99061.47;;;18.12;100.00
73624;BME280;61921;53.226;-1.296;2023-07-31T02:55:48;99057.50;;;18.07;100.00
73624;BME280;61921;53.226;-1.296;2023-07-31T02:58:13;99059.79;;;18.15;100.00
73624;BME280;61921;53.226;-1.296;2023-07-31T03:00:42;99058.59;;;18.16;100.00
73624;BME280;61921;53.226;-1.296;2023-07-31T03:03:03;99054.04;;;18.00;100.00
73624;BME280;61921;53.226;-1.296;2023-07-31T03:05:28;99054.93;;;18.14;100.00
73624;BME280;61921;53.226;-1.296;2023-07-31T03:07:53;99047.54;;;18.02;100.00
73624;BME280;61921;53.226;-1.296;2023-07-31T03:10:19;99041.30;;;18.10;100.00
73624;BME280;61921;53.226;-1.296;2023-07-31T03:12:46;99045.33;;;18.08;100.00
73624;BME280;61921;53.226;-1.296;2023-07-31T03:15:10;99048.61;;;18.06;100.00
73624;BME280;61921;53.226;-1.296;2023-07-31T03:17:34;99053.41;;;18.08;100.00
73624;BME280;61921;53.226;-1.296;2023-07-31T03:19:59;99045.42;;;18.10;100.00
73624;BME280;61921;53.226;-1.296;2023-07-31T03:22:24;99042.14;;;18.14;100.00
73624;BME280;61921;53.226;-1.296;2023-07-31T03:24:50;99037.23;;;18.05;100.00
73624;BME280;61921;53.226;-1.296;2023-07-31T03:27:15;99040.79;;;18.07;100.00
73624;BME280;61921;53.226;-1.296;2023-07-31T03:29:40;99041.68;;;18.18;100.00
73624;BME280;61921;53.226;-1.296;2023-07-31T03:32:06;99044.76;;;18.15;100.00
73624;BME280;61921;53.226;-1.296;2023-07-31T03:34:30;99043.80;;;18.18;100.00
73624;BME280;61921;53.226;-1.296;2023-07-31T03:36:55;99037.19;;;18.16;100.00
73624;BME280;61921;53.226;-1.296;2023-07-31T03:39:20;99035.75;;;18.22;100.00
73624;BME280;61921;53.226;-1.296;2023-07-31T03:41:45;99041.71;;;18.27;100.00
73624;BME280;61921;53.226;-1.296;2023-07-31T03:44:11;99040.70;;;18.15;100.00
73624;BME280;61921;53.226;-1.296;2023-07-31T03:46:36;99034.86;;;18.21;100.00
73624;BME280;61921;53.226;-1.296;2023-07-31T03:49:01;99040.61;;;18.18;100.00
73624;BME280;61921;53.226;-1.296;2023-07-31T03:51:26;99044.10;;;18.23;100.00
73624;BME280;61921;53.226;-1.296;2023-07-31T03:53:51;99046.89;;;18.28;100.00
73624;BME280;61921;53.226;-1.296;2023-07-31T03:56:16;99048.23;;;18.21;100.00
73624;BME280;61921;53.226;-1.296;2023-07-31T03:58:42;99046.35;;;18.30;100.00
73624;BME280;61921;53.226;-1.296;2023-07-31T04:01:07;99044.57;;;18.46;100.00
73624;BME280;61921;53.226;-1.296;2023-07-31T04:03:32;99045.00;;;18.61;100.00
73624;BME280;61921;53.226;-1.296;2023-07-31T04:05:57;99045.57;;;18.67;100.00
73624;BME280;61921;53.226;-1.296;2023-07-31T04:08:22;99041.49;;;18.72;100.00
73624;BME280;61921;53.226;-1.296;2023-07-31T04:10:47;99037.91;;;18.79;100.00
73624;BME280;61921;53.226;-1.296;2023-07-31T04:13:12;99041.42;;;18.87;100.00
73624;BME280;61921;53.226;-1.296;2023-07-31T04:15:37;99034.19;;;18.95;100.00
73624;BME280;61921;53.226;-1.296;2023-07-31T04:18:04;99027.98;;;19.02;100.00
73624;BME280;61921;53.226;-1.296;2023-07-31T04:20:28;99026.50;;;19.03;100.00
73624;BME280;61921;53.226;-1.296;2023-07-31T04:22:53;99028.84;;;19.08;100.00
73624;BME280;61921;53.226;-1.296;2023-07-31T04:25:18;99028.90;;;19.06;100.00
73624;BME280;61921;53.226;-1.296;2023-07-31T04:27:44;99025.76;;;18.99;100.00
73624;BME280;61921;53.226;-1.296;2023-07-31T04:30:09;99026.19;;;19.08;100.00
73624;BME280;61921;53.226;-1.296;2023-07-31T04:32:33;99023.56;;;19.05;100.00
73624;BME280;61921;53.226;-1.296;2023-07-31T04:34:58;99027.16;;;19.06;100.00
73624;BME280;61921;53.226;-1.296;2023-07-31T04:37:23;99027.69;;;18.99;100.00
73624;BME280;61921;53.226;-1.296;2023-07-31T04:39:48;99026.43;;;19.05;100.00
73624;BME280;61921;53.226;-1.296;2023-07-31T04:42:13;99031.99;;;18.95;100.00
73624;BME280;61921;53.226;-1.296;2023-07-31T04:44:39;99033.00;;;18.85;100.00
73624;BME280;61921;53.226;-1.296;2023-07-31T04:47:04;99032.74;;;18.88;100.00
73624;BME280;61921;53.226;-1.296;2023-07-31T04:49:29;99038.93;;;18.79;100.00
73624;BME280;61921;53.226;-1.296;2023-07-31T04:51:54;99043.06;;;18.71;100.00
73624;BME280;61921;53.226;-1.296;2023-07-31T04:54:19;99047.39;;;18.84;100.00
73624;BME280;61921;53.226;-1.296;2023-07-31T04:56:44;99046.42;;;18.91;100.00
73624;BME280;61921;53.226;-1.296;2023-07-31T04:59:09;99043.05;;;18.86;100.00
73624;BME280;61921;53.226;-1.296;2023-07-31T05:01:35;99040.95;;;18.99;100.00
73624;BME280;61921;53.226;-1.296;2023-07-31T05:04:00;99034.64;;;19.07;100.00
73624;BME280;61921;53.226;-1.296;2023-07-31T05:06:25;99035.40;;;19.11;100.00
73624;BME280;61921;53.226;-1.296;2023-07-31T05:08:50;99037.39;;;19.22;100.00
73624;BME280;61921;53.226;-1.296;2023-07-31T05:11:15;99042.06;;;19.29;100.00
73624;BME280;61921;53.226;-1.296;2023-07-31T05:13:40;99042.87;;;19.49;100.00
73624;BME280;61921;53.226;-1.296;2023-07-31T05:16:05;99048.38;;;19.26;100.00
73624;BME280;61921;53.226;-1.296;2023-07-31T05:18:30;99051.97;;;19.24;100.00
73624;BME280;61921;53.226;-1.296;2023-07-31T05:20:55;99051.93;;;19.39;100.00
73624;BME280;61921;53.226;-1.296;2023-07-31T05:23:20;99056.89;;;19.37;100.00
73624;BME280;61921;53.226;-1.296;2023-07-31T05:25:45;99062.02;;;19.45;100.00
73624;BME280;61921;53.226;-1.296;2023-07-31T05:28:11;99064.86;;;19.40;100.00
73624;BME280;61921;53.226;-1.296;2023-07-31T05:30:36;99070.70;;;19.35;100.00
73624;BME280;61921;53.226;-1.296;2023-07-31T05:33:01;99065.17;;;19.20;100.00
73624;BME280;61921;53.226;-1.296;2023-07-31T05:35:26;99060.73;;;19.16;100.00
73624;BME280;61921;53.226;-1.296;2023-07-31T05:37:51;99063.48;;;19.08;100.00
73624;BME280;61921;53.226;-1.296;2023-07-31T05:40:16;99064.55;;;18.95;100.00
73624;BME280;61921;53.226;-1.296;2023-07-31T05:42:41;99063.11;;;18.93;100.00
73624;BME280;61921;53.226;-1.296;2023-07-31T05:45:07;99062.51;;;19.11;100.00
73624;BME280;61921;53.226;-1.296;2023-07-31T05:47:32;99057.82;;;19.27;100.00
73624;BME280;61921;53.226;-1.296;2023-07-31T05:49:57;99054.43;;;19.35;100.00
73624;BME280;61921;53.226;-1.296;2023-07-31T05:52:22;99052.86;;;19.16;100.00
73624;BME280;61921;53.226;-1.296;2023-07-31T05:54:47;99059.51;;;19.16;100.00
73624;BME280;61921;53.226;-1.296;2023-07-31T05:57:12;99058.64;;;19.22;100.00
73624;BME280;61921;53.226;-1.296;2023-07-31T05:59:37;99057.00;;;19.18;100.00
73624;BME280;61921;53.226;-1.296;2023-07-31T06:02:02;99055.18;;;19.36;100.00
73624;BME280;61921;53.226;-1.296;2023-07-31T06:04:27;99055.68;;;19.21;100.00
73624;BME280;61921;53.226;-1.296;2023-07-31T06:06:52;99051.40;;;19.36;100.00
73624;BME280;61921;53.226;-1.296;2023-07-31T06:09:17;99045.81;;;19.41;99.98
73624;BME280;61921;53.226;-1.296;2023-07-31T06:11:43;99039.50;;;19.61;99.93
73624;BME280;61921;53.226;-1.296;2023-07-31T06:14:08;99039.52;;;19.77;99.31
73624;BME280;61921;53.226;-1.296;2023-07-31T06:16:33;99037.71;;;20.21;98.44
73624;BME280;61921;53.226;-1.296;2023-07-31T06:18:58;99029.46;;;20.12;96.60
73624;BME280;61921;53.226;-1.296;2023-07-31T06:21:23;99027.72;;;20.16;95.47
73624;BME280;61921;53.226;-1.296;2023-07-31T06:23:48;99030.60;;;20.10;95.01
73624;BME280;61921;53.226;-1.296;2023-07-31T06:26:13;99030.79;;;20.14;94.93
73624;BME280;61921;53.226;-1.296;2023-07-31T06:28:38;99029.24;;;19.84;95.47
73624;BME280;61921;53.226;-1.296;2023-07-31T06:31:03;99030.22;;;19.64;97.10
73624;BME280;61921;53.226;-1.296;2023-07-31T06:33:28;99029.48;;;19.63;97.15
73624;BME280;61921;53.226;-1.296;2023-07-31T06:35:54;99023.18;;;19.56;97.66
73624;BME280;61921;53.226;-1.296;2023-07-31T06:38:21;99026.61;;;19.60;97.69
73624;BME280;61921;53.226;-1.296;2023-07-31T06:40:44;99021.99;;;19.37;97.04
73624;BME280;61921;53.226;-1.296;2023-07-31T06:43:09;99021.80;;;19.41;97.95
73624;BME280;61921;53.226;-1.296;2023-07-31T06:45:34;99025.23;;;19.30;97.57
73624;BME280;61921;53.226;-1.296;2023-07-31T06:47:59;99025.54;;;19.18;98.21
73624;BME280;61921;53.226;-1.296;2023-07-31T06:50:25;99026.37;;;19.36;97.52
73624;BME280;61921;53.226;-1.296;2023-07-31T06:52:49;99022.16;;;19.37;97.59
73624;BME280;61921;53.226;-1.296;2023-07-31T06:55:17;99024.48;;;19.40;98.16
73624;BME280;61921;53.226;-1.296;2023-07-31T06:57:39;99029.43;;;19.43;97.76
73624;BME280;61921;53.226;-1.296;2023-07-31T07:00:06;99034.45;;;19.51;96.92
73624;BME280;61921;53.226;-1.296;2023-07-31T07:02:30;99032.36;;;19.41;97.52
73624;BME280;61921;53.226;-1.296;2023-07-31T07:04:55;99033.95;;;19.64;97.31
73624;BME280;61921;53.226;-1.296;2023-07-31T07:07:20;99037.37;;;19.72;96.59
73624;BME280;61921;53.226;-1.296;2023-07-31T07:09:45;99038.93;;;19.76;95.51
73624;BME280;61921;53.226;-1.296;2023-07-31T07:12:10;99035.56;;;19.69;95.88
73624;BME280;61921;53.226;-1.296;2023-07-31T07:14:35;99039.73;;;19.72;95.39
73624;BME280;61921;53.226;-1.296;2023-07-31T07:17:01;99030.70;;;19.52;95.39
73624;BME280;61921;53.226;-1.296;2023-07-31T07:19:27;99034.30;;;19.52;96.16
73624;BME280;61921;53.226;-1.296;2023-07-31T07:21:50;99033.08;;;19.29;96.67
73624;BME280;61921;53.226;-1.296;2023-07-31T07:24:16;99036.83;;;19.08;98.81
73624;BME280;61921;53.226;-1.296;2023-07-31T07:26:41;99036.59;;;19.14;98.38
73624;BME280;61921;53.226;-1.296;2023-07-31T07:29:06;99040.10;;;19.26;98.88
73624;BME280;61921;53.226;-1.296;2023-07-31T07:31:31;99031.77;;;19.10;98.36
73624;BME280;61921;53.226;-1.296;2023-07-31T07:33:56;99027.13;;;18.81;97.71
73624;BME280;61921;53.226;-1.296;2023-07-31T07:36:21;99020.74;;;19.12;98.10
73624;BME280;61921;53.226;-1.296;2023-07-31T07:38:46;99018.22;;;19.09;97.58
73624;BME280;61921;53.226;-1.296;2023-07-31T07:41:11;99011.44;;;19.17;96.52
73624;BME280;61921;53.226;-1.296;2023-07-31T07:43:37;98999.06;;;19.15;96.74
73624;BME280;61921;53.226;-1.296;2023-07-31T07:46:02;98987.68;;;19.16;96.54
73624;BME280;61921;53.226;-1.296;2023-07-31T07:48:27;98999.48;;;18.97;96.31
73624;BME280;61921;53.226;-1.296;2023-07-31T07:50:52;99004.84;;;19.14;96.31
73624;BME280;61921;53.226;-1.296;2023-07-31T07:53:17;99004.33;;;19.07;96.76
73624;BME280;61921;53.226;-1.296;2023-07-31T07:55:42;99005.16;;;19.22;95.73
73624;BME280;61921;53.226;-1.296;2023-07-31T07:58:08;99001.63;;;19.13;95.48
73624;BME280;61921;53.226;-1.296;2023-07-31T08:00:32;99002.60;;;19.17;95.44
73624;BME280;61921;53.226;-1.296;2023-07-31T08:02:58;99006.89;;;19.36;95.11
73624;BME280;61921;53.226;-1.296;2023-07-31T08:05:23;99011.07;;;19.35;94.32
73624;BME280;61921;53.226;-1.296;2023-07-31T08:07:48;99009.64;;;19.53;94.07
73624;BME280;61921;53.226;-1.296;2023-07-31T08:10:14;99013.21;;;19.52;93.19
73624;BME280;61921;53.226;-1.296;2023-07-31T08:12:39;99017.68;;;19.40;93.48
73624;BME280;61921;53.226;-1.296;2023-07-31T08:15:05;99028.55;;;19.50;93.98
73624;BME280;61921;53.226;-1.296;2023-07-31T08:17:29;99040.41;;;19.44;93.91
73624;BME280;61921;53.226;-1.296;2023-07-31T08:19:55;99042.86;;;19.47;93.35
73624;BME280;61921;53.226;-1.296;2023-07-31T08:22:21;99047.85;;;19.24;94.39
73624;BME280;61921;53.226;-1.296;2023-07-31T08:24:45;99043.20;;;19.09;93.93
73624;BME280;61921;53.226;-1.296;2023-07-31T08:27:10;99039.96;;;19.12;94.42
73624;BME280;61921;53.226;-1.296;2023-07-31T08:29:35;99033.21;;;19.18;93.93
73624;BME280;61921;53.226;-1.296;2023-07-31T08:32:00;99025.93;;;19.07;94.70
73624;BME280;61921;53.226;-1.296;2023-07-31T08:34:26;99022.53;;;19.13;94.68
73624;BME280;61921;53.226;-1.296;2023-07-31T08:36:51;99016.74;;;19.07;93.78
73624;BME280;61921;53.226;-1.296;2023-07-31T08:39:16;99019.27;;;18.94;95.78
73624;BME280;61921;53.226;-1.296;2023-07-31T08:41:41;99021.62;;;19.10;94.78
73624;BME280;61921;53.226;-1.296;2023-07-31T08:44:07;99021.81;;;19.02;94.64
73624;BME280;61921;53.226;-1.296;2023-07-31T08:46:33;99021.73;;;18.90;94.75
73624;BME280;61921;53.226;-1.296;2023-07-31T08:48:58;99027.10;;;18.94;95.29
73624;BME280;61921;53.226;-1.296;2023-07-31T08:51:23;99022.44;;;18.77;94.76
73624;BME280;61921;53.226;-1.296;2023-07-31T08:53:48;99021.76;;;18.82;95.47
73624;BME280;61921;53.226;-1.296;2023-07-31T08:56:13;99025.91;;;18.50;95.35
73624;BME280;61921;53.226;-1.296;2023-07-31T08:58:39;99030.90;;;18.61;95.87
73624;BME280;61921;53.226;-1.296;2023-07-31T09:01:04;99031.05;;;18.49;95.22
73624;BME280;61921;53.226;-1.296;2023-07-31T09:03:33;99038.05;;;18.63;95.24
73624;BME280;61921;53.226;-1.296;2023-07-31T09:05:56;99035.63;;;18.63;94.75
73624;BME280;61921;53.226;-1.296;2023-07-31T09:08:21;99035.71;;;18.72;94.67
73624;BME280;61921;53.226;-1.296;2023-07-31T09:10:45;99025.27;;;18.83;94.67
73624;BME280;61921;53.226;-1.296;2023-07-31T09:13:10;99018.94;;;18.86;93.70
73624;BME280;61921;53.226;-1.296;2023-07-31T09:15:35;99015.74;;;19.09;92.44
73624;BME280;61921;53.226;-1.296;2023-07-31T09:18:01;99007.81;;;19.23;91.47
73624;BME280;61921;53.226;-1.296;2023-07-31T09:20:25;99001.58;;;19.53;90.69
73624;BME280;61921;53.226;-1.296;2023-07-31T09:22:51;98996.71;;;19.54;90.45
73624;BME280;61921;53.226;-1.296;2023-07-31T09:25:16;99003.93;;;19.53;89.04
73624;BME280;61921;53.226;-1.296;2023-07-31T09:27:46;99003.15;;;19.50;88.39
73624;BME280;61921;53.226;-1.296;2023-07-31T09:30:06;99005.07;;;19.39;89.74
73624;BME280;61921;53.226;-1.296;2023-07-31T09:32:31;99007.35;;;19.39;89.33
73624;BME280;61921;53.226;-1.296;2023-07-31T09:34:55;99003.50;;;19.45;89.79
73624;BME280;61921;53.226;-1.296;2023-07-31T09:37:21;99003.25;;;19.36;89.44
73624;BME280;61921;53.226;-1.296;2023-07-31T09:39:47;99008.07;;;19.27;89.64
73624;BME280;61921;53.226;-1.296;2023-07-31T09:42:12;99003.09;;;19.04;90.77
73624;BME280;61921;53.226;-1.296;2023-07-31T09:44:39;99002.11;;;18.95;91.20
73624;BME280;61921;53.226;-1.296;2023-07-31T09:47:02;98998.81;;;19.11;90.94
73624;BME280;61921;53.226;-1.296;2023-07-31T09:49:27;98994.21;;;19.09;90.61
73624;BME280;61921;53.226;-1.296;2023-07-31T09:51:53;98994.28;;;19.15;89.94
73624;BME280;61921;53.226;-1.296;2023-07-31T09:54:17;99000.87;;;19.39;89.55
73624;BME280;61921;53.226;-1.296;2023-07-31T09:56:44;98998.32;;;19.44;88.17
73624;BME280;61921;53.226;-1.296;2023-07-31T09:59:08;99004.07;;;19.56;87.97
73624;BME280;61921;53.226;-1.296;2023-07-31T10:01:32;99003.91;;;19.74;87.81
73624;BME280;61921;53.226;-1.296;2023-07-31T10:03:58;98996.96;;;19.69;85.94
73624;BME280;61921;53.226;-1.296;2023-07-31T10:06:27;98988.63;;;19.43;87.09
73624;BME280;61921;53.226;-1.296;2023-07-31T10:08:49;98994.82;;;19.76;87.32
73624;BME280;61921;53.226;-1.296;2023-07-31T10:11:13;99006.23;;;19.57;87.11
73624;BME280;61921;53.226;-1.296;2023-07-31T10:13:39;99011.54;;;19.68;87.32
73624;BME280;61921;53.226;-1.296;2023-07-31T10:16:04;99012.92;;;19.57;87.43
73624;BME280;61921;53.226;-1.296;2023-07-31T10:18:29;99019.43;;;19.67;86.06
73624;BME280;61921;53.226;-1.296;2023-07-31T10:20:55;99017.29;;;19.41;88.33
73624;BME280;61921;53.226;-1.296;2023-07-31T10:23:20;99017.09;;;19.54;88.29
73624;BME280;61921;53.226;-1.296;2023-07-31T10:25:46;99014.42;;;19.42;88.78
73624;BME280;61921;53.226;-1.296;2023-07-31T10:28:10;99007.39;;;19.40;87.79
73624;BME280;61921;53.226;-1.296;2023-07-31T10:30:36;99011.32;;;19.37;88.44
73624;BME280;61921;53.226;-1.296;2023-07-31T10:33:01;99016.17;;;19.39;88.71
73624;BME280;61921;53.226;-1.296;2023-07-31T10:35:27;99014.42;;;19.18;88.52
73624;BME280;61921;53.226;-1.296;2023-07-31T10:37:52;99016.14;;;19.25;88.77
73624;BME280;61921;53.226;-1.296;2023-07-31T10:40:17;99012.40;;;19.34;88.97
73624;BME280;61921;53.226;-1.296;2023-07-31T10:42:46;99005.26;;;19.40;87.99
73624;BME280;61921;53.226;-1.296;2023-07-31T10:45:09;98981.33;;;19.23;88.07
73624;BME280;61921;53.226;-1.296;2023-07-31T10:47:38;98966.52;;;19.18;88.01
73624;BME280;61921;53.226;-1.296;2023-07-31T10:50:13;98961.63;;;19.16;88.54
73624;BME280;61921;53.226;-1.296;2023-07-31T10:52:22;98957.96;;;19.23;86.87
73624;BME280;61921;53.226;-1.296;2023-07-31T10:54:49;98955.75;;;18.95;88.23
73624;BME280;61921;53.226;-1.296;2023-07-31T10:57:21;98976.94;;;18.90;87.51
73624;BME280;61921;53.226;-1.296;2023-07-31T10:59:39;98986.42;;;18.88;88.90
73624;BME280;61921;53.226;-1.296;2023-07-31T11:02:04;98987.43;;;19.00;89.26
73624;BME280;61921;53.226;-1.296;2023-07-31T11:04:29;98988.60;;;19.03;88.71
73624;BME280;61921;53.226;-1.296;2023-07-31T11:06:58;98987.46;;;19.15;88.74
73624;BME280;61921;53.226;-1.296;2023-07-31T11:09:19;98981.98;;;19.12;89.02
73624;BME280;61921;53.226;-1.296;2023-07-31T11:11:44;98974.29;;;19.19;87.37
73624;BME280;61921;53.226;-1.296;2023-07-31T11:14:11;98969.31;;;19.44;86.83
73624;BME280;61921;53.226;-1.296;2023-07-31T11:16:35;98969.28;;;19.34;87.27
73624;BME280;61921;53.226;-1.296;2023-07-31T11:19:00;98983.54;;;19.54;87.43
73624;BME280;61921;53.226;-1.296;2023-07-31T11:21:25;98987.60;;;19.43;86.21
73624;BME280;61921;53.226;-1.296;2023-07-31T11:23:51;98980.53;;;19.24;85.77
73624;BME280;61921;53.226;-1.296;2023-07-31T11:26:15;98987.34;;;19.36;86.01
73624;BME280;61921;53.226;-1.296;2023-07-31T11:28:40;98988.00;;;19.30;86.14
73624;BME280;61921;53.226;-1.296;2023-07-31T11:31:09;98996.45;;;19.35;86.17
73624;BME280;61921;53.226;-1.296;2023-07-31T11:33:31;98997.34;;;19.14;86.03
73624;BME280;61921;53.226;-1.296;2023-07-31T11:35:56;99003.05;;;18.97;86.52
73624;BME280;61921;53.226;-1.296;2023-07-31T11:38:22;99006.38;;;19.09;87.16
73624;BME280;61921;53.226;-1.296;2023-07-31T11:40:46;99000.83;;;19.13;86.98
73624;BME280;61921;53.226;-1.296;2023-07-31T11:43:11;98991.99;;;19.06;87.65
73624;BME280;61921;53.226;-1.296;2023-07-31T11:45:38;98999.28;;;19.19;87.46
73624;BME280;61921;53.226;-1.296;2023-07-31T11:48:01;98997.91;;;19.18;86.50
73624;BME280;61921;53.226;-1.296;2023-07-31T11:50:27;99000.60;;;19.24;87.00
73624;BME280;61921;53.226;-1.296;2023-07-31T11:52:54;99004.44;;;19.19;88.06
73624;BME280;61921;53.226;-1.296;2023-07-31T11:55:17;99005.27;;;19.14;87.56
73624;BME280;61921;53.226;-1.296;2023-07-31T11:57:43;99000.84;;;19.24;88.19
73624;BME280;61921;53.226;-1.296;2023-07-31T12:00:08;98989.18;;;19.09;88.58
73624;BME280;61921;53.226;-1.296;2023-07-31T12:02:32;98974.60;;;18.97;90.11
73624;BME280;61921;53.226;-1.296;2023-07-31T12:04:58;98967.84;;;18.96;91.40
73624;BME280;61921;53.226;-1.296;2023-07-31T12:07:24;98963.39;;;18.98;91.09
73624;BME280;61921;53.226;-1.296;2023-07-31T12:09:53;98954.70;;;18.92;91.70
73624;BME280;61921;53.226;-1.296;2023-07-31T12:12:19;98949.03;;;18.95;92.16
73624;BME280;61921;53.226;-1.296;2023-07-31T12:14:41;98956.20;;;18.80;93.08
73624;BME280;61921;53.226;-1.296;2023-07-31T12:17:04;98955.93;;;18.55;93.78
73624;BME280;61921;53.226;-1.296;2023-07-31T12:19:28;98950.14;;;18.53;94.73
73624;BME280;61921;53.226;-1.296;2023-07-31T12:21:53;98934.15;;;18.54;95.17
73624;BME280;61921;53.226;-1.296;2023-07-31T12:24:18;98920.89;;;18.52;94.58
73624;BME280;61921;53.226;-1.296;2023-07-31T12:26:45;98921.29;;;18.67;94.87
73624;BME280;61921;53.226;-1.296;2023-07-31T12:29:08;98939.17;;;18.73;95.42
73624;BME280;61921;53.226;-1.296;2023-07-31T12:31:34;98943.04;;;18.84;95.65
73624;BME280;61921;53.226;-1.296;2023-07-31T12:33:58;98940.21;;;18.62;94.66